Time;durP1;ratioP1;P1;durP2;ratioP2;P2;SDS_P1;SDS_P2;PMS_P1;PMS_P2;Temp;Humidity;BMP_temperature;BMP_pressure;BME280_temperature;BME280_humidity;BME280_pressure;Samples;Min_cycle;Max_cycle;Signal;HPM_P1;HPM_P2
2022/11/11 00:00:33;;;;;;;9.43;8.37;;;7.10;99.90;;;;;;4979746;28;20216;-65
2022/11/11 00:02:59;;;;;;;9.60;7.27;;;7.10;99.90;;;;;;4981243;28;20486;-65
2022/11/11 00:05:25;;;;;;;7.33;6.63;;;7.20;99.90;;;;;;4978799;28;20475;-65
2022/11/11 00:07:58;;;;;;;21.03;8.67;;;7.20;99.90;;;;;;4982722;28;20474;-65
2022/11/11 00:10:24;;;;;;;8.33;6.87;;;7.20;99.90;;;;;;4981061;28;20447;-65
2022/11/11 00:12:50;;;;;;;10.43;6.77;;;7.10;99.90;;;;;;4981394;28;20549;-66
2022/11/11 00:15:16;;;;;;;8.40;6.40;;;7.10;99.90;;;;;;4983233;28;20529;-65
2022/11/11 00:26:04;;;;;;;8.00;5.33;;;7.00;99.90;;;;;;4971550;28;20453;-65
2022/11/11 00:28:29;;;;;;;10.17;6.40;;;7.00;99.90;;;;;;4975294;28;20519;-65
2022/11/11 00:31:06;;;;;;;7.10;5.70;;;7.00;99.90;;;;;;4983623;28;20275;-65
2022/11/11 00:33:32;;;;;;;8.50;5.43;;;7.00;99.90;;;;;;4981971;28;20298;-65
2022/11/11 00:35:58;;;;;;;10.23;5.90;;;7.00;99.90;;;;;;4979982;28;20534;-65
2022/11/11 00:41:08;;;;;;;10.57;5.93;;;6.90;99.90;;;;;;4982384;28;20533;-65
2022/11/11 00:43:34;;;;;;;9.50;5.20;;;6.90;99.90;;;;;;4983209;28;20877;-65
2022/11/11 00:51:28;;;;;;;8.90;5.57;;;6.70;99.90;;;;;;4984869;28;20971;-64
2022/11/11 00:53:54;;;;;;;5.87;5.27;;;6.70;99.90;;;;;;4975559;28;20467;-65
2022/11/11 00:56:20;;;;;;;7.50;6.00;;;6.60;99.90;;;;;;4977318;28;20441;-65
2022/11/11 00:58:46;;;;;;;11.93;5.80;;;6.50;99.90;;;;;;4982581;28;21101;-65
2022/11/11 01:01:12;;;;;;;6.50;5.30;;;6.50;99.90;;;;;;4982788;28;20466;-65
2022/11/11 01:03:37;;;;;;;6.67;4.70;;;6.60;99.90;;;;;;4985800;28;20537;-65
2022/11/11 01:06:03;;;;;;;6.20;5.40;;;6.60;99.90;;;;;;4981915;28;20180;-65
2022/11/11 01:08:30;;;;;;;6.23;5.63;;;6.60;99.90;;;;;;4974497;28;20315;-65
2022/11/11 01:10:56;;;;;;;9.40;5.20;;;6.60;99.90;;;;;;4988123;28;20534;-65
2022/11/11 01:13:23;;;;;;;7.23;5.00;;;6.60;99.90;;;;;;4981117;28;20550;-65
2022/11/11 01:15:52;;;;;;;5.73;5.03;;;6.50;99.90;;;;;;4985628;28;20183;-64
2022/11/11 01:18:23;;;;;;;5.93;4.90;;;6.50;99.90;;;;;;4985675;28;20465;-65
2022/11/11 01:21:01;;;;;;;11.80;5.47;;;6.60;99.90;;;;;;4979974;28;20459;-65
2022/11/11 01:23:27;;;;;;;8.00;5.83;;;6.50;99.90;;;;;;4981604;28;20472;-65
2022/11/11 01:25:53;;;;;;;7.63;7.03;;;6.50;99.90;;;;;;4982860;28;20445;-65
2022/11/11 01:28:18;;;;;;;7.53;6.30;;;6.50;99.90;;;;;;4972531;28;20435;-65
2022/11/11 01:30:44;;;;;;;8.13;6.60;;;6.60;99.90;;;;;;4979710;28;20270;-65
2022/11/11 01:33:10;;;;;;;10.83;6.90;;;6.60;99.90;;;;;;4978438;28;20203;-65
2022/11/11 01:35:40;;;;;;;9.17;6.83;;;6.60;99.90;;;;;;4976807;28;20184;-65
2022/11/11 01:38:07;;;;;;;8.67;5.80;;;6.60;99.90;;;;;;4978691;28;20442;-65
2022/11/11 01:40:53;;;;;;;7.00;5.87;;;6.50;99.90;;;;;;4978468;28;20481;-65
2022/11/11 01:43:21;;;;;;;8.97;6.87;;;6.60;99.90;;;;;;4985918;28;20505;-65
2022/11/11 01:46:00;;;;;;;8.17;6.13;;;6.60;99.90;;;;;;4982696;28;20828;-65
2022/11/11 01:51:38;;;;;;;7.30;5.40;;;6.60;99.90;;;;;;4979646;28;20527;-65
2022/11/11 01:54:11;;;;;;;8.73;5.70;;;6.60;99.90;;;;;;4982764;28;20866;-65
2022/11/11 01:56:38;;;;;;;7.90;5.80;;;6.50;99.90;;;;;;4979755;28;20439;-65
2022/11/11 01:59:11;;;;;;;6.23;5.40;;;6.60;99.90;;;;;;4979640;28;20843;-65
2022/11/11 02:01:38;;;;;;;6.70;5.97;;;6.50;99.90;;;;;;4988881;28;20471;-65
2022/11/11 02:06:53;;;;;;;7.70;6.13;;;6.50;99.90;;;;;;4985398;28;20504;-65
2022/11/11 02:09:21;;;;;;;6.50;5.80;;;6.50;99.90;;;;;;4975000;28;20471;-65
2022/11/11 02:14:41;;;;;;;6.80;6.17;;;6.40;99.90;;;;;;4981130;28;20893;-65
2022/11/11 02:17:10;;;;;;;6.57;5.93;;;6.30;99.90;;;;;;4978469;28;20443;-65
2022/11/11 02:19:52;;;;;;;13.00;6.70;;;6.20;99.90;;;;;;4978343;28;20457;-65
2022/11/11 02:22:27;;;;;;;6.00;5.20;;;6.20;99.90;;;;;;4977412;28;20518;-65
2022/11/11 02:24:54;;;;;;;9.60;6.03;;;6.10;99.90;;;;;;4972480;28;20446;-65
2022/11/11 02:27:22;;;;;;;6.83;6.00;;;6.20;99.90;;;;;;4971959;28;20798;-65
2022/11/11 02:29:49;;;;;;;7.23;4.70;;;6.10;99.90;;;;;;4985271;28;20944;-65
2022/11/11 02:32:15;;;;;;;5.20;4.80;;;6.10;99.90;;;;;;4984106;28;20526;-65
2022/11/11 02:34:40;;;;;;;7.10;5.10;;;6.10;99.90;;;;;;4985249;28;20624;-65
2022/11/11 02:37:08;;;;;;;6.70;5.57;;;6.10;99.90;;;;;;4977743;28;20184;-65
2022/11/11 02:39:36;;;;;;;7.00;5.53;;;6.10;99.90;;;;;;4975794;28;20198;-65
2022/11/11 02:42:08;;;;;;;8.60;5.80;;;6.10;99.90;;;;;;4980456;28;20546;-65
2022/11/11 02:44:35;;;;;;;5.60;4.80;;;6.10;99.90;;;;;;4976290;28;20487;-64
2022/11/11 02:47:00;;;;;;;7.83;5.90;;;6.10;99.90;;;;;;4982714;28;20859;-65
2022/11/11 02:49:26;;;;;;;6.43;4.87;;;6.10;99.90;;;;;;4978043;28;20439;-65
2022/11/11 02:51:51;;;;;;;8.07;5.60;;;6.10;99.90;;;;;;4978469;28;20191;-65
2022/11/11 02:54:17;;;;;;;5.37;4.87;;;6.00;99.90;;;;;;4981094;28;20234;-65
2022/11/11 02:59:26;;;;;;;5.90;5.30;;;6.00;99.90;;;;;;4977319;28;20224;-65
2022/11/11 03:01:52;;;;;;;7.93;5.37;;;6.00;99.90;;;;;;4978259;28;20478;-64
2022/11/11 03:04:17;;;;;;;8.73;5.50;;;6.00;99.90;;;;;;4977625;28;20259;-65
2022/11/11 03:06:43;;;;;;;7.73;5.60;;;6.00;99.90;;;;;;4981061;28;20211;-65
2022/11/11 03:09:08;;;;;;;7.23;5.30;;;5.90;99.90;;;;;;4984067;28;20218;-65
2022/11/11 03:11:37;;;;;;;9.33;6.30;;;6.00;99.90;;;;;;4975089;28;20211;-65
2022/11/11 03:14:03;;;;;;;7.00;6.30;;;5.90;99.90;;;;;;4979806;28;20781;-64
2022/11/11 03:19:13;;;;;;;6.57;5.97;;;5.90;99.90;;;;;;4980684;28;20814;-65
2022/11/11 03:21:38;;;;;;;6.80;6.10;;;5.90;99.90;;;;;;4984875;28;20464;-64
2022/11/11 03:24:04;;;;;;;7.10;6.40;;;5.90;99.90;;;;;;4979144;28;20220;-64
2022/11/11 03:26:30;;;;;;;7.87;5.90;;;5.90;99.90;;;;;;4975626;28;20189;-65
2022/11/11 03:28:55;;;;;;;8.17;6.33;;;5.90;99.90;;;;;;4980965;28;20258;-64
2022/11/11 03:31:21;;;;;;;9.20;7.10;;;5.90;99.90;;;;;;4981338;28;20215;-65
2022/11/11 03:33:46;;;;;;;10.50;6.13;;;5.90;99.90;;;;;;4985454;28;20459;-65
2022/11/11 03:36:12;;;;;;;11.93;6.43;;;5.90;99.90;;;;;;4973866;28;20587;-65
2022/11/11 03:38:38;;;;;;;6.57;5.37;;;6.00;99.90;;;;;;4976794;28;20191;-64
2022/11/11 03:41:03;;;;;;;12.97;6.33;;;6.00;99.90;;;;;;4972800;28;20537;-65
2022/11/11 03:43:31;;;;;;;9.83;5.80;;;6.00;99.90;;;;;;4979006;28;20207;-65
2022/11/11 03:45:59;;;;;;;5.90;5.40;;;6.00;99.90;;;;;;4985120;28;20234;-65
2022/11/11 03:48:27;;;;;;;6.03;5.43;;;6.00;99.90;;;;;;4979122;28;20434;-64
2022/11/11 03:50:52;;;;;;;6.90;6.00;;;6.00;99.90;;;;;;4984059;28;20438;-65
2022/11/11 03:53:19;;;;;;;9.63;6.40;;;6.00;99.90;;;;;;4975303;28;20547;-64
2022/11/11 03:55:45;;;;;;;12.97;6.03;;;6.00;99.90;;;;;;4987117;28;20196;-64
2022/11/11 03:58:11;;;;;;;7.73;6.93;;;6.00;99.90;;;;;;4982756;28;20501;-64
2022/11/11 04:00:37;;;;;;;6.83;6.13;;;6.00;99.90;;;;;;4976160;28;20627;-65
2022/11/11 04:11:38;;;;;;;8.30;7.40;;;6.00;99.90;;;;;;4971569;28;20879;-65
2022/11/11 04:16:54;;;;;;;7.80;6.97;;;5.90;99.90;;;;;;4977011;28;21133;-64
2022/11/11 04:22:05;;;;;;;7.50;6.80;;;5.90;99.90;;;;;;4988045;28;20503;-65
2022/11/11 04:27:17;;;;;;;9.57;6.27;;;5.80;99.90;;;;;;4982600;28;20195;-65
2022/11/11 04:29:45;;;;;;;6.67;5.97;;;5.80;99.90;;;;;;4971121;28;20439;-65
2022/11/11 04:32:34;;;;;;;7.33;6.53;;;5.80;99.90;;;;;;4983864;28;20479;-65
2022/11/11 04:35:09;;;;;;;8.30;7.17;;;5.70;99.90;;;;;;4983217;28;20443;-65
2022/11/11 04:37:45;;;;;;;8.00;7.13;;;5.70;99.90;;;;;;4985752;28;20451;-65
2022/11/11 04:42:55;;;;;;;7.63;6.33;;;5.70;99.90;;;;;;4978755;28;20458;-65
2022/11/11 04:45:26;;;;;;;9.40;7.00;;;5.70;99.90;;;;;;4982344;28;20447;-65
2022/11/11 04:48:03;;;;;;;7.90;7.03;;;5.60;99.90;;;;;;4987896;28;20552;-65
2022/11/11 04:50:34;;;;;;;6.87;6.27;;;5.60;99.90;;;;;;4985574;28;20492;-65
2022/11/11 04:53:01;;;;;;;7.13;6.40;;;5.60;99.90;;;;;;4982601;28;20484;-65
2022/11/11 04:58:11;;;;;;;6.87;5.50;;;5.60;99.90;;;;;;4982655;28;20490;-65
2022/11/11 05:00:37;;;;;;;7.00;6.00;;;5.50;99.90;;;;;;4985380;28;20491;-65
2022/11/11 05:03:15;;;;;;;12.00;5.40;;;5.50;99.90;;;;;;4980353;28;20204;-66
2022/11/11 05:11:16;;;;;;;6.07;5.50;;;5.50;99.90;;;;;;4973748;28;20446;-66
2022/11/11 05:22:09;;;;;;;5.80;5.20;;;5.40;99.90;;;;;;4976981;28;20472;-66
2022/11/11 05:27:20;;;;;;;6.87;6.17;;;5.40;99.90;;;;;;4981191;28;20470;-67
2022/11/11 05:29:46;;;;;;;6.20;5.60;;;5.30;99.90;;;;;;4981295;28;20438;-68
2022/11/11 05:32:19;;;;;;;6.67;5.97;;;5.30;99.90;;;;;;4977759;28;20446;-65
2022/11/11 05:34:44;;;;;;;6.40;5.80;;;5.30;99.90;;;;;;4978916;28;20450;-65
2022/11/11 05:37:10;;;;;;;8.90;5.30;;;5.30;99.90;;;;;;4975743;28;20446;-66
2022/11/11 05:39:35;;;;;;;63.67;27.80;;;5.30;99.90;;;;;;4982041;28;20199;-66
2022/11/11 05:42:01;;;;;;;17.13;10.90;;;5.20;99.90;;;;;;4994621;28;20203;-66
2022/11/11 05:44:27;;;;;;;9.93;6.60;;;5.20;99.90;;;;;;4994635;28;20199;-66
2022/11/11 05:46:52;;;;;;;8.30;7.50;;;5.20;99.90;;;;;;4980721;28;20522;-66
2022/11/11 05:49:18;;;;;;;8.77;6.40;;;5.20;99.90;;;;;;4974462;28;20188;-66
2022/11/11 05:51:44;;;;;;;7.30;5.80;;;5.20;99.90;;;;;;4974995;28;20183;-66
2022/11/11 05:54:10;;;;;;;7.10;6.40;;;5.20;99.90;;;;;;4974650;28;20206;-66
2022/11/11 05:56:36;;;;;;;6.23;5.60;;;5.20;99.90;;;;;;4975114;28;20917;-66
2022/11/11 05:59:01;;;;;;;10.50;8.27;;;5.30;99.90;;;;;;4974746;28;20180;-66
2022/11/11 06:01:27;;;;;;;9.13;7.63;;;5.30;99.90;;;;;;4975035;28;20208;-67
2022/11/11 06:03:52;;;;;;;8.27;7.40;;;5.30;99.90;;;;;;4974925;28;20216;-66
2022/11/11 06:06:18;;;;;;;10.87;8.17;;;5.30;99.90;;;;;;4974949;28;20173;-65
2022/11/11 06:08:44;;;;;;;15.17;9.60;;;5.40;99.90;;;;;;4974599;28;20183;-66
2022/11/11 06:11:09;;;;;;;12.50;8.93;;;5.40;99.90;;;;;;4974864;28;20207;-66
2022/11/11 06:13:35;;;;;;;9.60;7.63;;;5.40;99.90;;;;;;4974727;28;20192;-66
2022/11/11 06:16:01;;;;;;;11.60;9.33;;;5.40;99.90;;;;;;4974742;28;20259;-66
2022/11/11 06:18:27;;;;;;;10.70;8.53;;;5.40;99.90;;;;;;4974522;28;20190;-66
2022/11/11 06:20:53;;;;;;;11.70;6.63;;;5.40;99.90;;;;;;4974846;28;20451;-66
2022/11/11 06:23:19;;;;;;;11.07;6.60;;;5.40;99.90;;;;;;4974366;28;20195;-66
2022/11/11 06:28:29;;;;;;;18.40;7.10;;;5.30;99.90;;;;;;4974515;28;20179;-66
2022/11/11 06:30:54;;;;;;;7.10;6.50;;;5.30;99.90;;;;;;4974561;28;20427;-66
2022/11/11 06:33:20;;;;;;;10.43;7.00;;;5.30;99.90;;;;;;4974401;28;20196;-66
2022/11/11 06:35:46;;;;;;;9.10;7.40;;;5.40;99.90;;;;;;4973728;28;20176;-67
2022/11/11 06:38:12;;;;;;;10.17;8.50;;;5.40;99.90;;;;;;4974215;28;20988;-67
2022/11/11 06:40:38;;;;;;;6.87;6.27;;;5.40;99.90;;;;;;4974176;28;20455;-66
2022/11/11 06:43:03;;;;;;;10.53;7.80;;;5.40;99.90;;;;;;4974237;28;20287;-66
2022/11/11 06:45:30;;;;;;;8.90;7.80;;;5.40;99.90;;;;;;4974152;28;20428;-66
2022/11/11 06:47:56;;;;;;;11.87;8.37;;;5.50;99.90;;;;;;4974138;28;20204;-67
2022/11/11 06:50:21;;;;;;;10.37;8.13;;;5.50;99.90;;;;;;4973802;28;20483;-66
2022/11/11 06:52:47;;;;;;;12.23;8.43;;;5.50;99.90;;;;;;4974206;28;20301;-66
2022/11/11 06:55:13;;;;;;;15.27;9.57;;;5.60;99.90;;;;;;4974085;28;20767;-66
2022/11/11 06:57:39;;;;;;;14.53;8.67;;;5.60;99.90;;;;;;4974013;28;20183;-66
2022/11/11 07:00:05;;;;;;;12.23;9.10;;;5.70;99.90;;;;;;4973424;28;20172;-66
2022/11/11 07:02:31;;;;;;;12.33;8.30;;;5.80;99.90;;;;;;4973681;28;20434;-66
2022/11/11 07:04:56;;;;;;;9.80;8.10;;;5.90;99.90;;;;;;4973772;28;20925;-66
2022/11/11 07:07:22;;;;;;;10.40;8.70;;;6.00;99.90;;;;;;4974074;28;20183;-66
2022/11/11 07:09:48;;;;;;;11.90;8.80;;;6.00;99.90;;;;;;4973566;28;20172;-66
2022/11/11 07:12:13;;;;;;;12.50;8.80;;;6.10;99.90;;;;;;4973947;28;20194;-65
2022/11/11 07:14:39;;;;;;;10.03;8.37;;;6.20;99.90;;;;;;4973687;28;20230;-67
2022/11/11 07:17:04;;;;;;;11.63;8.77;;;6.20;99.90;;;;;;4973700;28;20239;-66
2022/11/11 07:19:30;;;;;;;17.40;9.83;;;6.30;99.90;;;;;;4973421;28;20180;-67
2022/11/11 07:21:56;;;;;;;12.30;9.27;;;6.40;99.90;;;;;;4973530;28;20204;-67
2022/11/11 07:24:21;;;;;;;11.50;9.30;;;6.50;99.90;;;;;;4973393;28;20212;-66
2022/11/11 07:26:47;;;;;;;10.77;8.70;;;6.60;99.90;;;;;;4973514;28;20230;-67
2022/11/11 07:29:14;;;;;;;11.67;8.40;;;6.50;99.90;;;;;;4972978;28;20196;-66
2022/11/11 07:31:40;;;;;;;11.17;9.30;;;6.50;99.90;;;;;;4973169;28;20183;-66
2022/11/11 07:34:06;;;;;;;7.90;7.10;;;6.50;99.90;;;;;;4972811;28;20562;-66
2022/11/11 07:36:32;;;;;;;9.87;8.87;;;6.60;99.90;;;;;;4973366;28;20432;-66
2022/11/11 07:38:58;;;;;;;10.20;7.93;;;6.70;99.90;;;;;;4973197;28;20918;-66
2022/11/11 07:41:23;;;;;;;12.33;7.40;;;6.70;99.90;;;;;;4973214;28;20203;-67
2022/11/11 07:43:49;;;;;;;13.67;8.77;;;6.80;99.90;;;;;;4973081;28;20272;-66
2022/11/11 07:46:14;;;;;;;8.70;7.63;;;7.10;99.90;;;;;;4963433;28;20274;-66
2022/11/11 07:48:40;;;;;;;10.90;9.60;;;7.10;99.90;;;;;;4946180;28;20646;-67
2022/11/11 07:51:05;;;;;;;8.50;7.60;;;7.10;99.90;;;;;;4967261;28;20184;-66
2022/11/11 07:53:31;;;;;;;8.17;7.37;;;7.10;99.90;;;;;;4988838;28;20206;-66
2022/11/11 07:55:57;;;;;;;11.50;10.40;;;7.40;99.90;;;;;;4974164;28;20185;-68
2022/11/11 07:58:22;;;;;;;8.90;7.20;;;7.50;99.90;;;;;;4969832;28;20188;-65
2022/11/11 08:00:48;;;;;;;9.03;8.20;;;7.50;99.90;;;;;;4970780;28;20203;-66
2022/11/11 08:03:13;;;;;;;9.70;8.50;;;7.60;99.90;;;;;;4972530;28;20211;-66
2022/11/11 08:05:39;;;;;;;10.80;9.20;;;7.90;99.90;;;;;;4970965;28;20176;-67
2022/11/11 08:08:06;;;;;;;8.00;7.20;;;8.20;99.90;;;;;;4967335;28;20172;-66
2022/11/11 08:10:33;;;;;;;10.00;9.00;;;8.50;99.90;;;;;;4971488;28;20190;-66
2022/11/11 08:15:43;;;;;;;10.03;7.37;;;9.10;99.90;;;;;;4970116;28;20502;-65
2022/11/11 08:18:08;;;;;;;9.03;7.90;;;9.10;99.90;;;;;;4972842;28;20415;-66
2022/11/11 08:20:34;;;;;;;7.97;7.17;;;9.10;99.90;;;;;;4972752;28;20207;-64
2022/11/11 08:23:03;;;;;;;9.53;8.53;;;9.20;99.90;;;;;;4972837;28;20684;-65
2022/11/11 08:25:29;;;;;;;8.00;7.30;;;9.20;99.90;;;;;;4970007;28;20204;-65
2022/11/11 08:27:59;;;;;;;12.03;9.83;;;9.20;99.90;;;;;;4972731;28;20419;-64
2022/11/11 08:30:25;;;;;;;12.60;8.83;;;9.50;99.90;;;;;;4968933;28;20427;-65
2022/11/11 08:33:01;;;;;;;12.10;8.63;;;9.80;99.90;;;;;;4970766;28;20439;-66
2022/11/11 08:35:28;;;;;;;10.73;8.80;;;9.80;99.90;;;;;;4972807;28;20195;-65
2022/11/11 08:37:54;;;;;;;8.00;6.93;;;10.10;99.90;;;;;;4972715;28;20838;-64
2022/11/11 08:40:19;;;;;;;7.57;6.70;;;10.40;99.90;;;;;;4969629;28;20497;-64
2022/11/11 08:42:45;;;;;;;8.87;6.67;;;10.30;99.90;;;;;;4972626;28;20978;-65
2022/11/11 08:45:11;;;;;;;6.17;5.67;;;10.50;99.90;;;;;;4972798;28;20184;-65
2022/11/11 08:47:37;;;;;;;13.63;9.80;;;10.50;99.90;;;;;;4972734;28;20172;-65
2022/11/11 08:50:05;;;;;;;8.20;6.83;;;10.60;99.90;;;;;;4972199;28;20427;-64
2022/11/11 08:52:31;;;;;;;6.13;5.53;;;11.20;99.90;;;;;;4972459;28;20438;-65
2022/11/11 08:54:56;;;;;;;6.47;5.87;;;11.60;99.90;;;;;;4972633;28;20420;-66
2022/11/11 08:57:22;;;;;;;12.23;6.00;;;12.50;99.90;;;;;;4972476;28;20176;-64
2022/11/11 08:59:47;;;;;;;6.90;6.23;;;13.00;99.90;;;;;;4975102;28;20259;-65
2022/11/11 09:02:13;;;;;;;7.30;5.37;;;13.10;99.90;;;;;;4976041;28;20208;-65
2022/11/11 09:04:40;;;;;;;7.30;5.30;;;13.80;99.90;;;;;;4975716;28;20195;-66
2022/11/11 09:07:09;;;;;;;5.87;5.27;;;14.50;99.90;;;;;;4975867;28;20422;-66
2022/11/11 09:09:35;;;;;;;5.37;4.97;;;15.30;99.90;;;;;;4975641;28;20431;-66
2022/11/11 09:12:01;;;;;;;8.03;4.60;;;16.10;99.90;;;;;;4975946;28;20439;-67
2022/11/11 09:14:26;;;;;;;5.10;4.70;;;17.10;99.90;;;;;;4975606;28;20200;-66
2022/11/11 09:16:52;;;;;;;5.90;5.40;;;18.20;99.90;;;;;;4975455;28;20168;-66
2022/11/11 09:19:18;;;;;;;5.00;4.60;;;19.40;99.90;;;;;;4975437;28;20176;-66
2022/11/11 09:21:43;;;;;;;3.80;3.50;;;20.00;99.90;;;;;;4975628;28;20204;-66
2022/11/11 09:24:09;;;;;;;5.30;4.90;;;21.10;98.30;;;;;;4975483;28;20258;-65
2022/11/11 09:26:34;;;;;;;5.10;4.17;;;21.80;95.30;;;;;;4975329;28;20175;-64
2022/11/11 09:29:00;;;;;;;4.83;4.40;;;22.60;93.40;;;;;;4974817;28;20749;-64
2022/11/11 09:31:25;;;;;;;4.30;3.90;;;22.90;90.90;;;;;;4975470;28;20224;-66
2022/11/11 09:33:51;;;;;;;4.27;3.87;;;23.30;90.00;;;;;;4974361;28;20207;-66
2022/11/11 09:36:17;;;;;;;4.43;3.80;;;23.00;88.80;;;;;;4958503;28;20236;-65
2022/11/11 09:38:43;;;;;;;5.03;4.43;;;23.00;88.90;;;;;;4974589;28;20740;-64
2022/11/11 09:41:20;;;;;;;4.83;4.53;;;22.50;90.60;;;;;;4974803;28;20467;-65
2022/11/11 09:43:54;;;;;;;4.47;4.10;;;22.50;90.10;;;;;;4974716;28;20224;-64
2022/11/11 09:46:37;;;;;;;5.27;4.87;;;23.20;89.20;;;;;;4975090;28;20430;-64
2022/11/11 09:49:20;;;;;;;5.13;4.70;;;23.30;85.90;;;;;;4975003;28;20412;-64
2022/11/11 09:52:01;;;;;;;6.70;4.53;;;24.10;84.60;;;;;;4974416;28;20435;-65
2022/11/11 09:54:36;;;;;;;5.63;5.13;;;24.70;80.00;;;;;;4975028;28;20482;-64
2022/11/11 09:57:10;;;;;;;5.53;4.20;;;25.50;76.30;;;;;;4974435;28;20442;-64
2022/11/11 09:59:51;;;;;;;4.63;4.27;;;25.00;75.10;;;;;;4974286;28;20431;-65
2022/11/11 10:02:39;;;;;;;4.70;4.30;;;24.10;76.00;;;;;;4974397;28;20459;-64
2022/11/11 10:05:11;;;;;;;6.70;5.70;;;24.70;77.00;;;;;;4974586;28;20433;-64
2022/11/11 10:07:44;;;;;;;5.67;5.03;;;24.10;75.90;;;;;;4974316;28;20424;-64
2022/11/11 10:10:33;;;;;;;5.07;4.67;;;24.20;78.20;;;;;;4973097;28;21017;-65
2022/11/11 10:12:59;;;;;;;4.60;3.70;;;23.80;78.70;;;;;;4974625;28;20538;-65
2022/11/11 10:15:33;;;;;;;4.43;4.00;;;23.90;78.30;;;;;;4974165;28;20432;-65
2022/11/11 10:18:17;;;;;;;5.27;3.80;;;23.80;79.10;;;;;;4974676;28;20426;-64
2022/11/11 10:20:48;;;;;;;4.80;3.70;;;24.20;78.10;;;;;;4973934;28;20498;-65
2022/11/11 10:23:16;;;;;;;4.33;3.93;;;24.70;76.80;;;;;;4974392;28;20452;-63
2022/11/11 10:25:52;;;;;;;4.10;3.80;;;24.80;76.20;;;;;;4974531;28;20411;-63
2022/11/11 10:28:21;;;;;;;6.80;3.90;;;24.50;75.70;;;;;;4972709;28;20431;-64
2022/11/11 10:30:48;;;;;;;4.17;3.87;;;24.10;78.80;;;;;;4974367;28;20427;-64
2022/11/11 10:33:28;;;;;;;4.53;3.73;;;24.20;77.40;;;;;;4973522;28;20521;-64
2022/11/11 10:35:59;;;;;;;4.37;4.00;;;24.20;77.10;;;;;;4974059;28;20431;-65
2022/11/11 10:38:57;;;;;;;4.63;4.17;;;24.50;76.60;;;;;;4973412;28;20579;-64
2022/11/11 10:41:43;;;;;;;3.53;3.23;;;24.90;74.50;;;;;;4949079;29;20480;-66
2022/11/11 10:44:24;;;;;;;4.93;3.80;;;24.60;74.70;;;;;;4955318;28;20953;-65
2022/11/11 10:47:14;;;;;;;4.77;3.77;;;25.40;74.30;;;;;;4973247;28;20945;-63
2022/11/11 10:49:52;;;;;;;6.33;3.20;;;26.80;67.50;;;;;;4973761;28;20979;-65
2022/11/11 10:52:49;;;;;;;4.60;3.40;;;27.40;64.60;;;;;;4973097;28;20430;-64
2022/11/11 10:55:26;;;;;;;3.50;3.20;;;28.60;61.80;;;;;;4973848;28;20424;-64
2022/11/11 10:57:58;;;;;;;4.73;3.90;;;29.30;58.80;;;;;;4973207;28;20764;-63
2022/11/11 11:00:24;;;;;;;4.00;3.37;;;29.80;56.40;;;;;;4954235;28;20415;-64
2022/11/11 11:02:49;;;;;;;5.33;4.80;;;29.40;55.70;;;;;;4966514;28;20447;-63
2022/11/11 11:05:17;;;;;;;4.33;3.90;;;28.20;57.20;;;;;;4982267;28;20180;-64
2022/11/11 11:07:48;;;;;;;5.13;3.53;;;26.60;58.60;;;;;;4973685;28;20177;-64
2022/11/11 11:10:19;;;;;;;4.57;4.17;;;26.00;60.10;;;;;;4973031;28;20438;-62
2022/11/11 11:12:51;;;;;;;4.07;3.73;;;25.90;60.30;;;;;;4973357;28;20427;-64
2022/11/11 11:15:20;;;;;;;4.60;4.20;;;26.00;60.40;;;;;;4973324;28;20416;-64
2022/11/11 11:18:06;;;;;;;4.40;4.00;;;26.50;59.70;;;;;;4973183;28;20935;-63
2022/11/11 11:20:31;;;;;;;4.40;3.60;;;26.70;59.20;;;;;;4973418;28;20423;-64
2022/11/11 11:22:58;;;;;;;4.13;3.83;;;27.50;62.20;;;;;;4972561;28;20451;-63
2022/11/11 11:25:28;;;;;;;4.10;3.77;;;27.90;62.20;;;;;;4972473;28;20228;-64
2022/11/11 11:28:10;;;;;;;3.93;3.63;;;28.60;61.30;;;;;;4974515;28;20454;-64
2022/11/11 11:30:36;;;;;;;4.57;4.00;;;28.20;61.00;;;;;;4972512;28;20482;-64
2022/11/11 11:33:05;;;;;;;5.10;4.20;;;28.00;60.10;;;;;;4973040;28;20443;-64
2022/11/11 11:35:37;;;;;;;4.20;3.90;;;26.50;62.30;;;;;;4972967;28;20176;-65
2022/11/11 11:38:08;;;;;;;4.17;3.87;;;26.10;64.10;;;;;;4972987;28;20427;-65
2022/11/11 11:40:52;;;;;;;3.80;3.50;;;25.60;66.30;;;;;;4973043;28;20455;-64
2022/11/11 11:43:33;;;;;;;4.40;3.27;;;25.60;66.10;;;;;;4981221;28;20827;-63
2022/11/11 11:46:01;;;;;;;4.70;4.30;;;25.20;67.40;;;;;;4973332;28;20441;-64
2022/11/11 11:48:52;;;;;;;7.83;3.50;;;25.90;66.80;;;;;;4972453;28;20842;-64
2022/11/11 11:51:23;;;;;;;4.73;3.70;;;24.50;68.30;;;;;;4953856;28;20408;-64
2022/11/11 11:54:03;;;;;;;6.73;4.80;;;24.10;71.50;;;;;;4953757;28;20528;-64
2022/11/11 11:56:40;;;;;;;4.23;3.77;;;24.90;69.50;;;;;;4964662;28;20431;-65
2022/11/11 11:59:21;;;;;;;6.73;4.33;;;25.80;66.80;;;;;;4972707;28;20423;-66
2022/11/11 12:02:06;;;;;;;7.53;4.10;;;26.30;65.00;;;;;;4972520;28;20498;-65
2022/11/11 12:05:09;;;;;;;3.73;3.43;;;26.70;63.90;;;;;;4953692;28;20439;-66
2022/11/11 12:07:58;;;;;;;3.70;3.40;;;26.90;63.60;;;;;;4959939;28;20857;-66
2022/11/11 12:10:36;;;;;;;5.73;3.50;;;27.80;62.40;;;;;;4972223;28;20443;-66
2022/11/11 12:13:15;;;;;;;3.30;3.00;;;28.90;59.50;;;;;;4972359;28;20847;-65
2022/11/11 12:15:47;;;;;;;8.23;3.63;;;30.00;59.10;;;;;;4972506;28;20425;-66
2022/11/11 12:18:28;;;;;;;3.90;3.47;;;30.90;58.50;;;;;;4972503;28;20828;-66
2022/11/11 12:21:04;;;;;;;3.63;3.10;;;31.00;58.60;;;;;;4970722;28;20577;-66
2022/11/11 12:23:57;;;;;;;4.97;3.43;;;31.10;57.10;;;;;;4972991;28;20458;-65
2022/11/11 12:26:35;;;;;;;4.60;3.73;;;30.80;56.30;;;;;;4972267;28;20420;-65
2022/11/11 12:29:22;;;;;;;3.83;3.10;;;31.40;56.00;;;;;;4971572;28;20959;-66
2022/11/11 12:32:24;;;;;;;3.97;3.67;;;31.90;55.20;;;;;;4971913;28;20446;-65
2022/11/11 12:35:01;;;;;;;4.10;3.20;;;32.30;55.80;;;;;;4984569;28;20500;-65
2022/11/11 12:37:47;;;;;;;4.73;3.60;;;32.10;55.70;;;;;;4984163;28;20450;-66
2022/11/11 12:40:18;;;;;;;6.37;3.40;;;32.00;55.30;;;;;;4968089;28;20426;-66
2022/11/11 12:43:01;;;;;;;3.70;3.20;;;31.20;55.50;;;;;;4976454;28;20829;-65
2022/11/11 12:45:50;;;;;;;3.80;3.50;;;29.80;56.40;;;;;;4968237;28;20426;-65
2022/11/11 12:49:06;;;;;;;7.03;3.30;;;28.70;58.40;;;;;;4976077;28;20787;-66
2022/11/11 12:51:43;;;;;;;3.30;3.00;;;27.70;59.90;;;;;;4975568;28;20924;-65
2022/11/11 12:54:28;;;;;;;4.67;2.93;;;27.40;59.70;;;;;;4976176;28;20438;-66
2022/11/11 12:57:12;;;;;;;5.50;4.10;;;27.50;59.60;;;;;;4976641;28;20423;-66
2022/11/11 12:59:57;;;;;;;5.10;3.57;;;28.00;59.40;;;;;;4975769;28;20419;-66
2022/11/11 13:03:05;;;;;;;3.73;3.03;;;28.60;58.90;;;;;;4975694;28;20490;-65
2022/11/11 13:05:47;;;;;;;5.20;4.70;;;28.70;59.00;;;;;;4975514;28;20431;-65
2022/11/11 13:08:39;;;;;;;12.70;11.43;;;28.60;59.30;;;;;;4975827;28;20419;-64
2022/11/11 13:11:32;;;;;;;6.60;5.77;;;28.40;60.30;;;;;;4975719;28;20427;-65
2022/11/11 13:14:22;;;;;;;6.07;5.57;;;28.80;59.60;;;;;;4975899;28;20479;-65
2022/11/11 13:16:50;;;;;;;7.63;6.87;;;28.70;59.20;;;;;;4974930;28;20911;-65
2022/11/11 13:19:29;;;;;;;7.80;6.13;;;27.70;60.10;;;;;;4975455;28;20420;-68
2022/11/11 13:22:11;;;;;;;8.37;7.60;;;26.50;61.50;;;;;;4983825;28;20518;-67
2022/11/11 13:24:37;;;;;;;8.10;6.53;;;25.00;63.30;;;;;;4975553;28;20497;-68
2022/11/11 13:27:11;;;;;;;7.60;6.90;;;23.30;67.10;;;;;;4974932;28;20881;-66
2022/11/11 13:29:46;;;;;;;7.63;6.67;;;22.50;71.60;;;;;;4974993;28;20294;-66
2022/11/11 13:32:17;;;;;;;7.47;6.87;;;22.40;73.60;;;;;;4975600;28;20484;-66
2022/11/11 13:34:43;;;;;;;8.80;7.40;;;22.50;74.50;;;;;;4974496;28;20549;-67
2022/11/11 13:37:24;;;;;;;7.93;7.17;;;22.50;75.90;;;;;;4975308;28;20439;-66
2022/11/11 13:39:51;;;;;;;8.20;7.30;;;22.40;76.20;;;;;;4974793;28;20415;-66
2022/11/11 13:42:24;;;;;;;9.43;8.53;;;22.30;76.80;;;;;;4974684;28;20471;-68
2022/11/11 13:44:54;;;;;;;10.73;9.40;;;22.00;79.00;;;;;;4965354;28;20561;-67
2022/11/11 13:47:39;;;;;;;8.83;7.73;;;21.70;82.30;;;;;;4974713;28;20459;-66
2022/11/11 13:50:20;;;;;;;7.90;7.20;;;21.00;85.00;;;;;;4974614;28;20455;-66
2022/11/11 13:53:01;;;;;;;13.77;12.40;;;20.20;91.30;;;;;;4975476;28;20454;-66
2022/11/11 13:55:36;;;;;;;8.30;7.50;;;19.70;93.50;;;;;;4974574;28;20416;-66
2022/11/11 13:58:03;;;;;;;8.23;7.53;;;19.50;94.10;;;;;;4977594;28;20585;-66
2022/11/11 14:00:34;;;;;;;12.33;6.87;;;19.30;95.40;;;;;;4992645;28;20549;-66
2022/11/11 14:03:19;;;;;;;13.13;9.00;;;18.90;96.60;;;;;;4974533;28;20444;-66
2022/11/11 14:05:45;;;;;;;18.93;7.63;;;18.40;96.90;;;;;;4974951;28;20462;-66
2022/11/11 14:08:42;;;;;;;10.60;8.10;;;18.20;98.80;;;;;;4982711;28;20929;-66
2022/11/11 14:11:25;;;;;;;6.80;6.30;;;17.90;99.30;;;;;;4979575;28;20433;-66
2022/11/11 14:14:18;;;;;;;9.03;7.47;;;17.80;99.90;;;;;;4983559;28;20965;-67
2022/11/11 14:16:43;;;;;;;7.47;6.70;;;17.80;99.90;;;;;;4982068;28;20438;-66
2022/11/11 14:19:18;;;;;;;11.33;10.23;;;17.70;99.90;;;;;;4982765;28;20477;-66
2022/11/11 14:22:27;;;;;;;13.00;11.23;;;17.40;99.90;;;;;;4980608;28;20241;-67
2022/11/11 14:24:53;;;;;;;9.60;8.63;;;17.40;99.90;;;;;;4967531;28;20948;-65